sensor_id;sensor_type;location;lat;lon;timestamp;pressure;altitude;pressure_sealevel;temperature
62932;BMP280;49037;41.898;25.004;2023-10-13T00:00:31;96891.22;;;12.70
62932;BMP280;49037;41.898;25.004;2023-10-13T00:03:02;96881.69;;;12.61
62932;BMP280;49037;41.898;25.004;2023-10-13T00:05:29;96875.09;;;12.62
62932;BMP280;49037;41.898;25.004;2023-10-13T00:07:59;96892.25;;;12.67
62932;BMP280;49037;41.898;25.004;2023-10-13T00:10:31;96878.81;;;12.59
62932;BMP280;49037;41.898;25.004;2023-10-13T00:12:57;96873.09;;;12.55
62932;BMP280;49037;41.898;25.004;2023-10-13T00:15:47;96893.28;;;12.64
62932;BMP280;49037;41.898;25.004;2023-10-13T00:18:39;96881.44;;;12.52
62932;BMP280;49037;41.898;25.004;2023-10-13T00:21:10;96865.72;;;12.41
62932;BMP280;49037;41.898;25.004;2023-10-13T00:23:43;96882.72;;;12.43
62932;BMP280;49037;41.898;25.004;2023-10-13T00:26:18;96880.56;;;12.42
62932;BMP280;49037;41.898;25.004;2023-10-13T00:28:44;96874.91;;;12.25
62932;BMP280;49037;41.898;25.004;2023-10-13T00:31:15;96869.50;;;12.18
62932;BMP280;49037;41.898;25.004;2023-10-13T00:33:42;96891.53;;;12.31
62932;BMP280;49037;41.898;25.004;2023-10-13T00:36:08;96875.59;;;12.18
62932;BMP280;49037;41.898;25.004;2023-10-13T00:38:42;96887.59;;;12.25
62932;BMP280;49037;41.898;25.004;2023-10-13T00:41:07;96869.19;;;12.21
62932;BMP280;49037;41.898;25.004;2023-10-13T00:43:46;96873.88;;;12.28
62932;BMP280;49037;41.898;25.004;2023-10-13T00:46:33;96868.31;;;12.26
62932;BMP280;49037;41.898;25.004;2023-10-13T00:49:01;96867.09;;;12.27
62932;BMP280;49037;41.898;25.004;2023-10-13T00:51:51;96885.88;;;12.35
62932;BMP280;49037;41.898;25.004;2023-10-13T00:54:24;96863.66;;;12.19
62932;BMP280;49037;41.898;25.004;2023-10-13T00:56:53;96870.94;;;12.19
62932;BMP280;49037;41.898;25.004;2023-10-13T00:59:30;96860.88;;;12.04
62932;BMP280;49037;41.898;25.004;2023-10-13T01:02:04;96867.34;;;12.09
62932;BMP280;49037;41.898;25.004;2023-10-13T01:04:49;96862.66;;;12.02
62932;BMP280;49037;41.898;25.004;2023-10-13T01:07:15;96871.47;;;12.10
62932;BMP280;49037;41.898;25.004;2023-10-13T01:09:47;96866.41;;;11.99
62932;BMP280;49037;41.898;25.004;2023-10-13T01:12:15;96860.88;;;12.04
62932;BMP280;49037;41.898;25.004;2023-10-13T01:14:41;96859.47;;;12.11
62932;BMP280;49037;41.898;25.004;2023-10-13T01:17:06;96843.41;;;12.03
62932;BMP280;49037;41.898;25.004;2023-10-13T01:19:36;96858.81;;;12.10
62932;BMP280;49037;41.898;25.004;2023-10-13T01:22:04;96849.50;;;12.11
62932;BMP280;49037;41.898;25.004;2023-10-13T01:24:32;96859.22;;;12.22
62932;BMP280;49037;41.898;25.004;2023-10-13T01:27:03;96860.81;;;12.25
62932;BMP280;49037;41.898;25.004;2023-10-13T01:29:46;96842.19;;;12.12
62932;BMP280;49037;41.898;25.004;2023-10-13T01:32:17;96831.44;;;12.04
62932;BMP280;49037;41.898;25.004;2023-10-13T01:34:43;96837.38;;;12.10
62932;BMP280;49037;41.898;25.004;2023-10-13T01:37:14;96834.66;;;12.03
62932;BMP280;49037;41.898;25.004;2023-10-13T01:39:44;96830.88;;;11.98
62932;BMP280;49037;41.898;25.004;2023-10-13T01:42:16;96826.75;;;11.97
62932;BMP280;49037;41.898;25.004;2023-10-13T01:45:07;96831.75;;;11.93
62932;BMP280;49037;41.898;25.004;2023-10-13T01:47:33;96836.94;;;11.99
62932;BMP280;49037;41.898;25.004;2023-10-13T01:49:59;96840.69;;;11.96
62932;BMP280;49037;41.898;25.004;2023-10-13T01:52:33;96851.03;;;11.99
62932;BMP280;49037;41.898;25.004;2023-10-13T01:55:00;96848.00;;;11.95
62932;BMP280;49037;41.898;25.004;2023-10-13T01:57:27;96856.88;;;11.91
62932;BMP280;49037;41.898;25.004;2023-10-13T01:59:54;96844.31;;;11.78
62932;BMP280;49037;41.898;25.004;2023-10-13T02:02:31;96856.81;;;11.83
62932;BMP280;49037;41.898;25.004;2023-10-13T02:04:56;96849.00;;;11.85
62932;BMP280;49037;41.898;25.004;2023-10-13T02:07:26;96835.75;;;11.80
62932;BMP280;49037;41.898;25.004;2023-10-13T02:10:00;96844.66;;;11.75
62932;BMP280;49037;41.898;25.004;2023-10-13T02:12:30;96835.00;;;11.72
62932;BMP280;49037;41.898;25.004;2023-10-13T02:15:21;96835.69;;;11.65
62932;BMP280;49037;41.898;25.004;2023-10-13T02:17:48;96844.56;;;11.60
62932;BMP280;49037;41.898;25.004;2023-10-13T02:20:22;96837.03;;;11.58
62932;BMP280;49037;41.898;25.004;2023-10-13T02:22:49;96818.75;;;11.42
62932;BMP280;49037;41.898;25.004;2023-10-13T02:25:19;96820.38;;;11.45
62932;BMP280;49037;41.898;25.004;2023-10-13T02:28:04;96817.59;;;11.58
62932;BMP280;49037;41.898;25.004;2023-10-13T02:30:43;96808.22;;;11.44
62932;BMP280;49037;41.898;25.004;2023-10-13T02:33:14;96822.25;;;11.57
62932;BMP280;49037;41.898;25.004;2023-10-13T02:35:41;96813.84;;;11.53
62932;BMP280;49037;41.898;25.004;2023-10-13T02:38:08;96828.34;;;11.65
62932;BMP280;49037;41.898;25.004;2023-10-13T02:40:38;96805.09;;;11.53
62932;BMP280;49037;41.898;25.004;2023-10-13T02:43:04;96815.25;;;11.54
62932;BMP280;49037;41.898;25.004;2023-10-13T02:45:32;96807.91;;;11.48
62932;BMP280;49037;41.898;25.004;2023-10-13T02:47:58;96816.31;;;11.51
62932;BMP280;49037;41.898;25.004;2023-10-13T02:50:40;96808.88;;;11.57
62932;BMP280;49037;41.898;25.004;2023-10-13T02:53:10;96818.50;;;11.60
62932;BMP280;49037;41.898;25.004;2023-10-13T02:55:50;96804.16;;;11.50
62932;BMP280;49037;41.898;25.004;2023-10-13T02:58:15;96812.59;;;11.54
62932;BMP280;49037;41.898;25.004;2023-10-13T03:00:41;96819.19;;;11.53
62932;BMP280;49037;41.898;25.004;2023-10-13T03:03:06;96825.63;;;11.58
62932;BMP280;49037;41.898;25.004;2023-10-13T03:05:36;96829.91;;;11.53
62932;BMP280;49037;41.898;25.004;2023-10-13T03:08:05;96847.25;;;11.60
62932;BMP280;49037;41.898;25.004;2023-10-13T03:10:32;96824.50;;;11.46
62932;BMP280;49037;41.898;25.004;2023-10-13T03:12:58;96827.31;;;11.48
62932;BMP280;49037;41.898;25.004;2023-10-13T03:15:24;96844.19;;;11.63
62932;BMP280;49037;41.898;25.004;2023-10-13T03:17:56;96831.38;;;11.62
62932;BMP280;49037;41.898;25.004;2023-10-13T03:20:24;96847.50;;;11.77
62932;BMP280;49037;41.898;25.004;2023-10-13T03:22:56;96821.38;;;11.62
62932;BMP280;49037;41.898;25.004;2023-10-13T03:25:25;96829.06;;;11.66
62932;BMP280;49037;41.898;25.004;2023-10-13T03:27:53;96823.47;;;11.56
62932;BMP280;49037;41.898;25.004;2023-10-13T03:30:19;96823.63;;;11.51
62932;BMP280;49037;41.898;25.004;2023-10-13T03:32:46;96817.69;;;11.45
62932;BMP280;49037;41.898;25.004;2023-10-13T03:35:14;96819.06;;;11.39
62932;BMP280;49037;41.898;25.004;2023-10-13T03:37:49;96804.34;;;11.25
62932;BMP280;49037;41.898;25.004;2023-10-13T03:40:14;96803.94;;;11.21
62932;BMP280;49037;41.898;25.004;2023-10-13T03:43:12;96795.03;;;11.18
62932;BMP280;49037;41.898;25.004;2023-10-13T03:45:44;96789.69;;;11.18
62932;BMP280;49037;41.898;25.004;2023-10-13T03:48:17;96801.34;;;11.28
62932;BMP280;49037;41.898;25.004;2023-10-13T03:51:05;96795.41;;;11.22
62932;BMP280;49037;41.898;25.004;2023-10-13T03:53:40;96797.88;;;11.20
62932;BMP280;49037;41.898;25.004;2023-10-13T03:56:27;96808.69;;;11.35
62932;BMP280;49037;41.898;25.004;2023-10-13T03:59:00;96804.56;;;11.34
62932;BMP280;49037;41.898;25.004;2023-10-13T04:01:37;96803.13;;;11.33
62932;BMP280;49037;41.898;25.004;2023-10-13T04:04:18;96810.66;;;11.35
62932;BMP280;49037;41.898;25.004;2023-10-13T04:07:20;96805.25;;;11.27
62932;BMP280;49037;41.898;25.004;2023-10-13T04:10:08;96810.78;;;11.29
62932;BMP280;49037;41.898;25.004;2023-10-13T04:13:07;96813.38;;;11.22
62932;BMP280;49037;41.898;25.004;2023-10-13T04:15:54;96818.63;;;11.27
62932;BMP280;49037;41.898;25.004;2023-10-13T04:18:42;96820.06;;;11.28
62932;BMP280;49037;41.898;25.004;2023-10-13T04:21:32;96827.94;;;11.34
62932;BMP280;49037;41.898;25.004;2023-10-13T04:27:35;96816.44;;;11.18
62932;BMP280;49037;41.898;25.004;2023-10-13T04:30:19;96828.41;;;11.25
62932;BMP280;49037;41.898;25.004;2023-10-13T04:33:06;96807.00;;;11.04
62932;BMP280;49037;41.898;25.004;2023-10-13T04:36:50;96806.19;;;11.09
62932;BMP280;49037;41.898;25.004;2023-10-13T04:44:03;96828.63;;;11.34
62932;BMP280;49037;41.898;25.004;2023-10-13T04:47:01;96804.72;;;11.29
62932;BMP280;49037;41.898;25.004;2023-10-13T04:49:50;96814.44;;;11.39
62932;BMP280;49037;41.898;25.004;2023-10-13T04:52:25;96817.19;;;11.47
62932;BMP280;49037;41.898;25.004;2023-10-13T04:55:09;96837.31;;;11.68
62932;BMP280;49037;41.898;25.004;2023-10-13T04:58:08;96832.09;;;11.70
62932;BMP280;49037;41.898;25.004;2023-10-13T05:00:54;96839.88;;;11.81
62932;BMP280;49037;41.898;25.004;2023-10-13T05:03:38;96824.72;;;11.83
62932;BMP280;49037;41.898;25.004;2023-10-13T05:06:19;96841.22;;;11.94
62932;BMP280;49037;41.898;25.004;2023-10-13T05:09:03;96849.25;;;11.94
62932;BMP280;49037;41.898;25.004;2023-10-13T05:11:50;96848.72;;;11.96
62932;BMP280;49037;41.898;25.004;2023-10-13T05:14:33;96859.66;;;12.05
62932;BMP280;49037;41.898;25.004;2023-10-13T05:17:19;96860.34;;;12.06
62932;BMP280;49037;41.898;25.004;2023-10-13T05:20:07;96848.75;;;12.03
62932;BMP280;49037;41.898;25.004;2023-10-13T05:22:54;96848.56;;;12.01
62932;BMP280;49037;41.898;25.004;2023-10-13T05:25:38;96858.44;;;12.14
62932;BMP280;49037;41.898;25.004;2023-10-13T05:28:22;96855.22;;;12.15
62932;BMP280;49037;41.898;25.004;2023-10-13T05:31:09;96854.00;;;12.16
62932;BMP280;49037;41.898;25.004;2023-10-13T05:34:05;96844.34;;;12.13
62932;BMP280;49037;41.898;25.004;2023-10-13T05:36:58;96854.88;;;12.19
62932;BMP280;49037;41.898;25.004;2023-10-13T05:39:42;96843.09;;;12.14
62932;BMP280;49037;41.898;25.004;2023-10-13T05:42:25;96838.72;;;12.04
62932;BMP280;49037;41.898;25.004;2023-10-13T05:45:15;96842.84;;;12.05
62932;BMP280;49037;41.898;25.004;2023-10-13T05:47:44;96849.44;;;12.04
62932;BMP280;49037;41.898;25.004;2023-10-13T05:50:35;96846.81;;;12.11
62932;BMP280;49037;41.898;25.004;2023-10-13T05:53:35;96844.75;;;12.25
62932;BMP280;49037;41.898;25.004;2023-10-13T05:56:23;96847.50;;;12.39
62932;BMP280;49037;41.898;25.004;2023-10-13T05:59:07;96856.66;;;12.59
62932;BMP280;49037;41.898;25.004;2023-10-13T06:01:51;96844.50;;;12.58
62932;BMP280;49037;41.898;25.004;2023-10-13T06:04:49;96842.81;;;12.82
62932;BMP280;49037;41.898;25.004;2023-10-13T06:07:36;96833.34;;;12.96
62932;BMP280;49037;41.898;25.004;2023-10-13T06:10:19;96847.84;;;13.23
62932;BMP280;49037;41.898;25.004;2023-10-13T06:13:03;96845.19;;;13.30
62932;BMP280;49037;41.898;25.004;2023-10-13T06:15:47;96845.16;;;13.45
62932;BMP280;49037;41.898;25.004;2023-10-13T06:18:33;96845.16;;;13.45
62932;BMP280;49037;41.898;25.004;2023-10-13T06:21:19;96839.44;;;13.64
62932;BMP280;49037;41.898;25.004;2023-10-13T06:24:04;96847.25;;;13.91
62932;BMP280;49037;41.898;25.004;2023-10-13T06:26:49;96862.34;;;14.26
62932;BMP280;49037;41.898;25.004;2023-10-13T06:29:32;96875.31;;;14.52
62932;BMP280;49037;41.898;25.004;2023-10-13T06:32:01;96895.44;;;14.75
62932;BMP280;49037;41.898;25.004;2023-10-13T06:34:30;96886.22;;;14.93
62932;BMP280;49037;41.898;25.004;2023-10-13T06:37:16;96899.03;;;15.09
62932;BMP280;49037;41.898;25.004;2023-10-13T06:39:55;96908.66;;;15.43
62932;BMP280;49037;41.898;25.004;2023-10-13T06:42:44;96907.34;;;15.69
62932;BMP280;49037;41.898;25.004;2023-10-13T06:45:10;96917.28;;;15.83
62932;BMP280;49037;41.898;25.004;2023-10-13T06:47:37;96902.31;;;15.89
62932;BMP280;49037;41.898;25.004;2023-10-13T06:50:14;96906.34;;;16.15
62932;BMP280;49037;41.898;25.004;2023-10-13T06:52:47;96929.94;;;16.57
62932;BMP280;49037;41.898;25.004;2023-10-13T06:55:13;96901.47;;;16.73
62932;BMP280;49037;41.898;25.004;2023-10-13T06:58:03;96900.72;;;16.89
62932;BMP280;49037;41.898;25.004;2023-10-13T07:00:48;96902.66;;;17.15
62932;BMP280;49037;41.898;25.004;2023-10-13T07:03:22;96906.72;;;17.42
62932;BMP280;49037;41.898;25.004;2023-10-13T07:05:51;96903.81;;;17.76
62932;BMP280;49037;41.898;25.004;2023-10-13T07:09:14;96910.06;;;17.97
62932;BMP280;49037;41.898;25.004;2023-10-13T07:12:58;96909.63;;;18.28
62932;BMP280;49037;41.898;25.004;2023-10-13T07:15:26;96909.06;;;18.39
62932;BMP280;49037;41.898;25.004;2023-10-13T07:17:54;96896.66;;;18.55
62932;BMP280;49037;41.898;25.004;2023-10-13T07:20:30;96896.03;;;18.75
62932;BMP280;49037;41.898;25.004;2023-10-13T07:22:55;96906.09;;;18.84
62932;BMP280;49037;41.898;25.004;2023-10-13T07:25:53;96913.19;;;18.89
62932;BMP280;49037;41.898;25.004;2023-10-13T07:28:24;96896.88;;;18.68
62932;BMP280;49037;41.898;25.004;2023-10-13T07:30:49;96912.63;;;18.91
62932;BMP280;49037;41.898;25.004;2023-10-13T07:33:35;96890.44;;;19.13
62932;BMP280;49037;41.898;25.004;2023-10-13T07:36:05;96896.13;;;19.38
62932;BMP280;49037;41.898;25.004;2023-10-13T07:40:52;96895.63;;;19.71
62932;BMP280;49037;41.898;25.004;2023-10-13T07:43:21;96910.19;;;20.08
62932;BMP280;49037;41.898;25.004;2023-10-13T07:45:49;96890.25;;;20.15
62932;BMP280;49037;41.898;25.004;2023-10-13T07:49:17;96890.69;;;20.43
62932;BMP280;49037;41.898;25.004;2023-10-13T07:51:46;96895.38;;;20.31
62932;BMP280;49037;41.898;25.004;2023-10-13T07:54:14;96905.19;;;20.36
62932;BMP280;49037;41.898;25.004;2023-10-13T07:56:58;96918.50;;;20.32
62932;BMP280;49037;41.898;25.004;2023-10-13T07:59:23;96919.72;;;20.52
62932;BMP280;49037;41.898;25.004;2023-10-13T08:01:49;96918.16;;;20.26
62932;BMP280;49037;41.898;25.004;2023-10-13T08:04:34;96928.09;;;20.45
62932;BMP280;49037;41.898;25.004;2023-10-13T08:07:03;96918.91;;;20.38
62932;BMP280;49037;41.898;25.004;2023-10-13T08:09:39;96926.88;;;20.36
62932;BMP280;49037;41.898;25.004;2023-10-13T08:12:16;96922.44;;;20.41
62932;BMP280;49037;41.898;25.004;2023-10-13T08:16:01;96940.06;;;20.62
62932;BMP280;49037;41.898;25.004;2023-10-13T08:18:32;96940.31;;;20.78
62932;BMP280;49037;41.898;25.004;2023-10-13T08:21:13;96944.88;;;20.64
62932;BMP280;49037;41.898;25.004;2023-10-13T08:23:45;96927.78;;;20.84
62932;BMP280;49037;41.898;25.004;2023-10-13T08:26:24;96935.47;;;21.10
62932;BMP280;49037;41.898;25.004;2023-10-13T08:29:47;96924.50;;;21.31
62932;BMP280;49037;41.898;25.004;2023-10-13T08:32:22;96911.81;;;21.47
62932;BMP280;49037;41.898;25.004;2023-10-13T08:35:00;96909.81;;;21.36
62932;BMP280;49037;41.898;25.004;2023-10-13T08:37:32;96914.31;;;21.43
62932;BMP280;49037;41.898;25.004;2023-10-13T08:40:27;96899.97;;;21.54
62932;BMP280;49037;41.898;25.004;2023-10-13T08:43:14;96891.81;;;21.54
62932;BMP280;49037;41.898;25.004;2023-10-13T08:45:43;96890.81;;;21.72
62932;BMP280;49037;41.898;25.004;2023-10-13T08:48:11;96899.72;;;21.50
62932;BMP280;49037;41.898;25.004;2023-10-13T08:50:51;96892.97;;;21.62
62932;BMP280;49037;41.898;25.004;2023-10-13T08:53:24;96903.38;;;21.66
62932;BMP280;49037;41.898;25.004;2023-10-13T08:56:16;96903.81;;;21.73
62932;BMP280;49037;41.898;25.004;2023-10-13T08:59:01;96899.06;;;21.85
62932;BMP280;49037;41.898;25.004;2023-10-13T09:04:14;96897.53;;;22.07
62932;BMP280;49037;41.898;25.004;2023-10-13T09:09:17;96881.50;;;22.38
62932;BMP280;49037;41.898;25.004;2023-10-13T09:11:55;96897.34;;;22.68
62932;BMP280;49037;41.898;25.004;2023-10-13T09:14:39;96892.03;;;22.83
62932;BMP280;49037;41.898;25.004;2023-10-13T09:17:13;96878.69;;;22.76
62932;BMP280;49037;41.898;25.004;2023-10-13T09:19:45;96883.06;;;22.94
62932;BMP280;49037;41.898;25.004;2023-10-13T09:22:25;96884.44;;;22.82
62932;BMP280;49037;41.898;25.004;2023-10-13T09:25:06;96880.53;;;22.98
62932;BMP280;49037;41.898;25.004;2023-10-13T09:27:38;96876.09;;;22.91
62932;BMP280;49037;41.898;25.004;2023-10-13T09:30:05;96876.38;;;23.10
62932;BMP280;49037;41.898;25.004;2023-10-13T09:32:47;96872.94;;;23.23
62932;BMP280;49037;41.898;25.004;2023-10-13T09:35:23;96885.50;;;23.43
62932;BMP280;49037;41.898;25.004;2023-10-13T09:38:14;96894.00;;;23.49
62932;BMP280;49037;41.898;25.004;2023-10-13T09:40:52;96872.81;;;23.34
62932;BMP280;49037;41.898;25.004;2023-10-13T09:43:23;96880.47;;;23.66
62932;BMP280;49037;41.898;25.004;2023-10-13T09:45:53;96872.69;;;23.74
62932;BMP280;49037;41.898;25.004;2023-10-13T09:48:44;96876.88;;;23.91
62932;BMP280;49037;41.898;25.004;2023-10-13T09:51:26;96873.88;;;23.85
62932;BMP280;49037;41.898;25.004;2023-10-13T09:53:56;96873.13;;;23.84
62932;BMP280;49037;41.898;25.004;2023-10-13T09:56:42;96870.16;;;23.93
62932;BMP280;49037;41.898;25.004;2023-10-13T09:59:42;96882.09;;;24.15
62932;BMP280;49037;41.898;25.004;2023-10-13T10:02:20;96895.03;;;23.99
62932;BMP280;49037;41.898;25.004;2023-10-13T10:04:52;96879.53;;;24.19
62932;BMP280;49037;41.898;25.004;2023-10-13T10:07:53;96878.66;;;24.15
62932;BMP280;49037;41.898;25.004;2023-10-13T10:10:22;96885.53;;;24.16
62932;BMP280;49037;41.898;25.004;2023-10-13T10:13:10;96886.09;;;23.84
62932;BMP280;49037;41.898;25.004;2023-10-13T10:15:43;96895.09;;;23.86
62932;BMP280;49037;41.898;25.004;2023-10-13T10:18:27;96868.91;;;24.10
62932;BMP280;49037;41.898;25.004;2023-10-13T10:21:05;96874.09;;;24.19
62932;BMP280;49037;41.898;25.004;2023-10-13T10:23:35;96871.34;;;24.19
62932;BMP280;49037;41.898;25.004;2023-10-13T10:26:29;96878.78;;;24.47
62932;BMP280;49037;41.898;25.004;2023-10-13T10:28:55;96867.19;;;24.79
62932;BMP280;49037;41.898;25.004;2023-10-13T10:31:31;96882.34;;;24.82
62932;BMP280;49037;41.898;25.004;2023-10-13T10:34:11;96875.56;;;25.16
62932;BMP280;49037;41.898;25.004;2023-10-13T10:37:00;96866.59;;;25.31
62932;BMP280;49037;41.898;25.004;2023-10-13T10:39:35;96843.22;;;25.28
62932;BMP280;49037;41.898;25.004;2023-10-13T10:42:22;96844.66;;;24.96
62932;BMP280;49037;41.898;25.004;2023-10-13T10:44:56;96843.38;;;24.82
62932;BMP280;49037;41.898;25.004;2023-10-13T10:47:30;96842.06;;;24.83
62932;BMP280;49037;41.898;25.004;2023-10-13T10:50:00;96843.53;;;24.86
62932;BMP280;49037;41.898;25.004;2023-10-13T10:52:45;96841.81;;;24.77
62932;BMP280;49037;41.898;25.004;2023-10-13T10:55:12;96829.59;;;24.95
62932;BMP280;49037;41.898;25.004;2023-10-13T10:58:04;96825.56;;;24.81
62932;BMP280;49037;41.898;25.004;2023-10-13T11:01:04;96830.78;;;25.25
62932;BMP280;49037;41.898;25.004;2023-10-13T11:03:35;96838.84;;;25.21
62932;BMP280;49037;41.898;25.004;2023-10-13T11:06:04;96831.19;;;25.34
62932;BMP280;49037;41.898;25.004;2023-10-13T11:09:09;96833.56;;;24.92
62932;BMP280;49037;41.898;25.004;2023-10-13T11:11:46;96821.03;;;25.20
62932;BMP280;49037;41.898;25.004;2023-10-13T11:14:29;96826.97;;;25.49
62932;BMP280;49037;41.898;25.004;2023-10-13T11:16:59;96831.66;;;25.46
62932;BMP280;49037;41.898;25.004;2023-10-13T11:19:47;96821.63;;;25.53
62932;BMP280;49037;41.898;25.004;2023-10-13T11:22:39;96818.22;;;25.18
62932;BMP280;49037;41.898;25.004;2023-10-13T11:25:29;96832.66;;;25.20
62932;BMP280;49037;41.898;25.004;2023-10-13T11:27:57;96813.97;;;25.15
62932;BMP280;49037;41.898;25.004;2023-10-13T11:30:26;96828.13;;;25.44
62932;BMP280;49037;41.898;25.004;2023-10-13T11:33:15;96812.72;;;25.52
62932;BMP280;49037;41.898;25.004;2023-10-13T11:35:44;96819.38;;;25.30
62932;BMP280;49037;41.898;25.004;2023-10-13T11:38:27;96816.50;;;25.61
62932;BMP280;49037;41.898;25.004;2023-10-13T11:41:01;96817.66;;;25.56
62932;BMP280;49037;41.898;25.004;2023-10-13T11:43:35;96811.13;;;25.82
62932;BMP280;49037;41.898;25.004;2023-10-13T11:46:33;96821.59;;;25.51
62932;BMP280;49037;41.898;25.004;2023-10-13T11:49:21;96814.94;;;25.38
62932;BMP280;49037;41.898;25.004;2023-10-13T11:51:53;96809.22;;;25.67
62932;BMP280;49037;41.898;25.004;2023-10-13T11:54:38;96808.19;;;25.59
62932;BMP280;49037;41.898;25.004;2023-10-13T11:59:33;96809.13;;;25.65
62932;BMP280;49037;41.898;25.004;2023-10-13T12:02:21;96812.13;;;26.09
62932;BMP280;49037;41.898;25.004;2023-10-13T12:04:59;96804.94;;;26.18
62932;BMP280;49037;41.898;25.004;2023-10-13T12:07:24;96801.06;;;26.05
62932;BMP280;49037;41.898;25.004;2023-10-13T12:10:10;96805.84;;;26.24
62932;BMP280;49037;41.898;25.004;2023-10-13T12:12:57;96818.47;;;26.33
62932;BMP280;49037;41.898;25.004;2023-10-13T12:15:23;96805.28;;;25.72
62932;BMP280;49037;41.898;25.004;2023-10-13T12:18:02;96819.38;;;25.65
62932;BMP280;49037;41.898;25.004;2023-10-13T12:20:50;96814.28;;;25.40
62932;BMP280;49037;41.898;25.004;2023-10-13T12:23:24;96799.16;;;25.20
62932;BMP280;49037;41.898;25.004;2023-10-13T12:25:56;96809.38;;;25.36
62932;BMP280;49037;41.898;25.004;2023-10-13T12:28:47;96821.28;;;25.43
62932;BMP280;49037;41.898;25.004;2023-10-13T12:31:22;96812.28;;;25.40
62932;BMP280;49037;41.898;25.004;2023-10-13T12:33:58;96811.72;;;25.44
62932;BMP280;49037;41.898;25.004;2023-10-13T12:37:02;96816.03;;;25.49
62932;BMP280;49037;41.898;25.004;2023-10-13T12:40:26;96815.56;;;25.54
62932;BMP280;49037;41.898;25.004;2023-10-13T12:43:10;96822.19;;;25.67
62932;BMP280;49037;41.898;25.004;2023-10-13T12:46:14;96831.25;;;25.54
62932;BMP280;49037;41.898;25.004;2023-10-13T12:48:58;96816.97;;;25.55
62932;BMP280;49037;41.898;25.004;2023-10-13T12:51:42;96819.47;;;25.49
62932;BMP280;49037;41.898;25.004;2023-10-13T12:54:19;96825.16;;;25.55
62932;BMP280;49037;41.898;25.004;2023-10-13T12:56:52;96832.81;;;25.76
62932;BMP280;49037;41.898;25.004;2023-10-13T12:59:30;96830.94;;;25.80
62932;BMP280;49037;41.898;25.004;2023-10-13T13:01:56;96827.34;;;25.76
62932;BMP280;49037;41.898;25.004;2023-10-13T13:04:24;96828.69;;;25.58
62932;BMP280;49037;41.898;25.004;2023-10-13T13:06:53;96826.41;;;25.69
62932;BMP280;49037;41.898;25.004;2023-10-13T13:09:40;96835.50;;;25.93
62932;BMP280;49037;41.898;25.004;2023-10-13T13:17:54;96808.84;;;26.13
62932;BMP280;49037;41.898;25.004;2023-10-13T13:20:20;96810.53;;;26.22
62932;BMP280;49037;41.898;25.004;2023-10-13T13:23:01;96817.63;;;26.29
62932;BMP280;49037;41.898;25.004;2023-10-13T13:27:25;96804.00;;;26.11
62932;BMP280;49037;41.898;25.004;2023-10-13T13:29:52;96809.72;;;26.17
62932;BMP280;49037;41.898;25.004;2023-10-13T13:32:20;96810.94;;;25.95
62932;BMP280;49037;41.898;25.004;2023-10-13T13:34:54;96814.56;;;26.00
62932;BMP280;49037;41.898;25.004;2023-10-13T13:37:50;96809.34;;;26.07
62932;BMP280;49037;41.898;25.004;2023-10-13T13:40:15;96810.03;;;26.08
62932;BMP280;49037;41.898;25.004;2023-10-13T13:42:45;96817.56;;;26.07
62932;BMP280;49037;41.898;25.004;2023-10-13T13:45:21;96810.59;;;26.04
62932;BMP280;49037;41.898;25.004;2023-10-13T13:47:53;96803.84;;;25.88
62932;BMP280;49037;41.898;25.004;2023-10-13T13:53:55;96816.25;;;26.08
62932;BMP280;49037;41.898;25.004;2023-10-13T13:56:20;96807.44;;;26.12
62932;BMP280;49037;41.898;25.004;2023-10-13T13:58:49;96814.28;;;26.30
62932;BMP280;49037;41.898;25.004;2023-10-13T14:03:32;96816.91;;;26.28
62932;BMP280;49037;41.898;25.004;2023-10-13T14:06:27;96814.28;;;26.30
62932;BMP280;49037;41.898;25.004;2023-10-13T14:08:58;96799.72;;;26.26
62932;BMP280;49037;41.898;25.004;2023-10-13T14:12:00;96804.81;;;25.97
62932;BMP280;49037;41.898;25.004;2023-10-13T14:14:48;96803.50;;;25.44
62932;BMP280;49037;41.898;25.004;2023-10-13T14:17:40;96806.56;;;25.00
62932;BMP280;49037;41.898;25.004;2023-10-13T14:20:08;96804.38;;;24.64
62932;BMP280;49037;41.898;25.004;2023-10-13T14:22:41;96790.25;;;24.22
62932;BMP280;49037;41.898;25.004;2023-10-13T14:25:26;96814.63;;;24.33
62932;BMP280;49037;41.898;25.004;2023-10-13T14:27:56;96809.69;;;24.29
62932;BMP280;49037;41.898;25.004;2023-10-13T14:30:23;96791.66;;;24.23
62932;BMP280;49037;41.898;25.004;2023-10-13T14:32:51;96793.25;;;24.12
62932;BMP280;49037;41.898;25.004;2023-10-13T14:35:17;96791.84;;;23.96
62932;BMP280;49037;41.898;25.004;2023-10-13T14:40:31;96805.16;;;24.03
62932;BMP280;49037;41.898;25.004;2023-10-13T14:42:56;96798.31;;;24.04
62932;BMP280;49037;41.898;25.004;2023-10-13T14:45:25;96791.00;;;23.63
62932;BMP280;49037;41.898;25.004;2023-10-13T14:48:13;96788.31;;;23.50
62932;BMP280;49037;41.898;25.004;2023-10-13T14:51:20;96794.72;;;23.41
62932;BMP280;49037;41.898;25.004;2023-10-13T14:53:46;96780.88;;;23.08
62932;BMP280;49037;41.898;25.004;2023-10-13T14:56:15;96786.28;;;22.93
62932;BMP280;49037;41.898;25.004;2023-10-13T14:58:51;96797.41;;;22.70
62932;BMP280;49037;41.898;25.004;2023-10-13T15:04:02;96783.59;;;22.40
62932;BMP280;49037;41.898;25.004;2023-10-13T15:06:30;96777.22;;;22.35
62932;BMP280;49037;41.898;25.004;2023-10-13T15:10:29;96782.44;;;22.18
62932;BMP280;49037;41.898;25.004;2023-10-13T15:15:45;96784.66;;;22.08
62932;BMP280;49037;41.898;25.004;2023-10-13T15:18:14;96789.50;;;22.09
62932;BMP280;49037;41.898;25.004;2023-10-13T15:20:40;96783.53;;;22.00
62932;BMP280;49037;41.898;25.004;2023-10-13T15:23:09;96799.16;;;21.99
62932;BMP280;49037;41.898;25.004;2023-10-13T15:26:55;96783.13;;;21.92
62932;BMP280;49037;41.898;25.004;2023-10-13T15:29:30;96790.69;;;21.93
62932;BMP280;49037;41.898;25.004;2023-10-13T15:32:03;96787.41;;;21.83
62932;BMP280;49037;41.898;25.004;2023-10-13T15:35:53;96791.22;;;21.78
62932;BMP280;49037;41.898;25.004;2023-10-13T15:39:11;96780.78;;;21.62
62932;BMP280;49037;41.898;25.004;2023-10-13T15:42:35;96794.69;;;21.68